createdAt,value
2023-03-10T00:00:19.381Z,3.45
2023-03-10T00:02:49.489Z,2.40
2023-03-10T00:05:18.455Z,2.83
2023-03-10T00:07:47.238Z,2.92
2023-03-10T00:10:19.402Z,2.78
2023-03-10T00:12:46.309Z,2.63
2023-03-10T00:15:14.194Z,2.63
2023-03-10T00:17:41.307Z,2.70
2023-03-10T00:20:11.825Z,3.65
2023-03-10T00:22:41.961Z,2.88
2023-03-10T00:25:09.996Z,2.78
2023-03-10T00:27:36.923Z,3.38
2023-03-10T00:30:04.988Z,3.30
2023-03-10T00:32:31.853Z,3.80
2023-03-10T00:34:58.690Z,4.50
2023-03-10T00:37:25.449Z,5.97
2023-03-10T00:39:52.902Z,11.60
2023-03-10T00:42:20.321Z,11.40
2023-03-10T00:44:47.534Z,12.07
2023-03-10T00:47:14.658Z,12.73
2023-03-10T00:49:41.444Z,6.57
2023-03-10T00:52:08.199Z,8.93
2023-03-10T00:54:34.902Z,11.50
2023-03-10T00:57:01.858Z,14.68
2023-03-10T00:59:34.942Z,24.10
2023-03-10T01:02:08.660Z,22.65
2023-03-10T01:04:35.521Z,22.88
2023-03-10T01:07:02.307Z,29.48
2023-03-10T01:09:29.053Z,18.60
2023-03-10T01:11:55.813Z,14.40
2023-03-10T01:14:22.588Z,6.13
2023-03-10T01:16:49.385Z,4.13
2023-03-10T01:19:16.330Z,3.88
2023-03-10T01:21:43.099Z,4.07
2023-03-10T01:24:15.719Z,6.80
2023-03-10T01:26:42.478Z,3.53
2023-03-10T01:29:09.252Z,4.38
2023-03-10T01:31:36.196Z,3.60
2023-03-10T01:34:03.157Z,3.92
2023-03-10T01:36:30.240Z,3.70
2023-03-10T01:38:57.775Z,3.75
2023-03-10T01:41:24.687Z,3.30
2023-03-10T01:43:56.320Z,3.65
2023-03-10T01:46:31.987Z,3.85
2023-03-10T01:49:04.828Z,4.50
2023-03-10T01:51:35.842Z,4.03
2023-03-10T01:54:07.256Z,2.75
2023-03-10T01:56:35.425Z,4.35
2023-03-10T01:59:03.126Z,3.30
2023-03-10T02:01:30.966Z,4.22
2023-03-10T02:04:03.660Z,5.80
2023-03-10T02:06:31.037Z,3.88
2023-03-10T02:09:01.262Z,3.38
2023-03-10T02:11:28.091Z,3.13
2023-03-10T02:13:55.469Z,3.17
2023-03-10T02:16:23.184Z,3.28
2023-03-10T02:18:50.310Z,3.40
2023-03-10T02:21:44.172Z,4.00
2023-03-10T02:24:42.697Z,4.40
2023-03-10T02:27:37.238Z,3.50
2023-03-10T02:30:21.883Z,3.70
2023-03-10T02:32:54.517Z,3.17
2023-03-10T02:35:21.465Z,3.00
2023-03-10T02:37:50.985Z,2.92
2023-03-10T02:40:43.253Z,3.47
2023-03-10T02:43:22.325Z,3.47
2023-03-10T02:45:50.281Z,2.92
2023-03-10T02:48:28.296Z,3.60
2023-03-10T02:50:56.704Z,2.97
2023-03-10T02:53:26.462Z,3.10
2023-03-10T02:55:54.271Z,2.78
2023-03-10T02:58:22.144Z,2.55
2023-03-10T03:00:49.960Z,3.65
2023-03-10T03:03:19.386Z,3.53
2023-03-10T03:05:47.309Z,2.75
2023-03-10T03:08:15.313Z,2.28
2023-03-10T03:10:42.765Z,3.03
2023-03-10T03:13:09.715Z,2.50
2023-03-10T03:15:36.734Z,2.63
2023-03-10T03:18:04.358Z,4.55
2023-03-10T03:20:32.349Z,2.83
2023-03-10T03:22:59.452Z,3.03
2023-03-10T03:25:28.362Z,3.95
2023-03-10T03:27:56.102Z,4.95
2023-03-10T03:30:28.104Z,7.10
2023-03-10T03:32:55.976Z,3.92
2023-03-10T03:35:43.161Z,4.50
2023-03-10T03:38:10.392Z,4.80
2023-03-10T03:40:37.582Z,4.07
2023-03-10T03:43:05.128Z,3.97
2023-03-10T03:45:32.377Z,4.30
2023-03-10T03:47:59.731Z,4.18
2023-03-10T03:50:27.499Z,4.10
2023-03-10T03:52:54.520Z,4.60
2023-03-10T03:55:21.474Z,4.15
2023-03-10T03:57:48.628Z,3.78
2023-03-10T04:00:21.670Z,4.85
2023-03-10T04:02:51.390Z,3.72
2023-03-10T04:05:18.867Z,3.63
2023-03-10T04:07:46.253Z,3.40
2023-03-10T04:10:19.362Z,4.32
2023-03-10T04:12:46.266Z,3.65
2023-03-10T04:15:13.264Z,3.60
2023-03-10T04:17:40.414Z,4.00
2023-03-10T04:20:09.005Z,4.70
2023-03-10T04:22:36.434Z,5.47
2023-03-10T04:25:04.416Z,7.70
2023-03-10T04:27:31.471Z,4.47
2023-03-10T04:29:58.340Z,6.30
2023-03-10T04:32:25.424Z,7.10
2023-03-10T04:34:52.626Z,3.70
2023-03-10T04:37:21.763Z,6.45
2023-03-10T04:39:48.769Z,7.13
2023-03-10T04:42:15.536Z,9.35
2023-03-10T04:44:42.575Z,8.18
2023-03-10T04:47:09.421Z,6.50
2023-03-10T04:49:38.440Z,5.70
2023-03-10T04:52:05.508Z,4.57
2023-03-10T04:54:32.366Z,5.38
2023-03-10T04:56:59.227Z,8.35
2023-03-10T04:59:26.093Z,6.55
2023-03-10T05:01:53.779Z,5.82
2023-03-10T05:04:20.739Z,4.70
2023-03-10T05:06:51.238Z,4.57
2023-03-10T05:09:21.202Z,5.82
2023-03-10T05:11:47.972Z,4.07
2023-03-10T05:14:15.608Z,4.95
2023-03-10T05:16:42.387Z,3.95
2023-03-10T05:19:09.388Z,4.30
2023-03-10T05:21:36.221Z,3.90
2023-03-10T05:24:02.958Z,5.55
2023-03-10T05:26:32.752Z,4.53
2023-03-10T05:29:01.130Z,3.92
2023-03-10T05:31:27.934Z,8.23
2023-03-10T05:33:54.893Z,5.03
2023-03-10T05:36:27.185Z,5.90
2023-03-10T05:38:53.975Z,5.45
2023-03-10T05:41:20.818Z,7.25
2023-03-10T05:43:47.613Z,4.95
2023-03-10T05:46:14.720Z,7.22
2023-03-10T05:48:41.609Z,7.70
2023-03-10T05:51:12.618Z,6.65
2023-03-10T05:53:40.559Z,5.97
2023-03-10T05:56:15.819Z,8.93
2023-03-10T05:58:43.569Z,4.95
2023-03-10T06:01:10.554Z,5.28
2023-03-10T06:03:38.313Z,7.00
2023-03-10T06:06:06.932Z,7.75
2023-03-10T06:08:34.222Z,7.82
2023-03-10T06:11:01.120Z,16.52
2023-03-10T06:13:27.990Z,12.85
2023-03-10T06:15:57.822Z,9.23
2023-03-10T06:18:24.952Z,13.55
2023-03-10T06:20:53.545Z,11.43
2023-03-10T06:23:21.371Z,8.80
2023-03-10T06:26:01.947Z,6.40
2023-03-10T06:28:33.120Z,10.13
2023-03-10T06:31:01.538Z,7.47
2023-03-10T06:33:28.968Z,7.35
2023-03-10T06:35:56.297Z,4.72
2023-03-10T06:38:23.701Z,5.38
2023-03-10T06:40:51.072Z,5.45
2023-03-10T06:43:18.529Z,5.85
2023-03-10T06:45:47.246Z,5.13
2023-03-10T06:48:14.876Z,8.35
2023-03-10T06:50:49.670Z,3.83
2023-03-10T06:53:19.525Z,5.10
2023-03-10T06:56:01.172Z,2.95
2023-03-10T06:58:29.142Z,3.10
2023-03-10T07:00:56.295Z,5.47
2023-03-10T07:03:26.139Z,3.28
2023-03-10T07:05:53.323Z,3.35
2023-03-10T07:08:20.270Z,3.05
2023-03-10T07:10:47.473Z,3.17
2023-03-10T07:13:15.670Z,3.20
2023-03-10T07:15:43.832Z,3.80
2023-03-10T07:18:10.997Z,3.67
2023-03-10T07:20:40.712Z,3.45
2023-03-10T07:23:07.992Z,10.02
2023-03-10T07:25:36.485Z,5.43
2023-03-10T07:28:03.965Z,5.10
2023-03-10T07:30:34.216Z,4.00
2023-03-10T07:33:06.222Z,6.38
2023-03-10T07:35:36.364Z,3.88
2023-03-10T07:38:04.179Z,5.25
2023-03-10T07:40:31.081Z,4.75
2023-03-10T07:42:58.127Z,8.82
2023-03-10T07:45:26.193Z,4.72
2023-03-10T07:47:54.321Z,3.78
2023-03-10T07:50:22.156Z,4.97
2023-03-10T07:52:49.090Z,4.53
2023-03-10T07:55:15.990Z,4.60
2023-03-10T07:57:43.056Z,5.32
2023-03-10T08:00:11.343Z,4.80
2023-03-10T08:02:38.292Z,4.47
2023-03-10T08:05:05.601Z,4.00
2023-03-10T08:14:29.182Z,4.75
2023-03-10T08:16:58.464Z,5.55
2023-03-10T08:19:27.242Z,4.95
2023-03-10T08:21:58.025Z,7.18
2023-03-10T08:24:25.688Z,5.63
2023-03-10T08:26:52.496Z,7.47
2023-03-10T08:29:19.413Z,5.50
2023-03-10T08:31:46.313Z,6.63
2023-03-10T08:34:13.884Z,6.72
2023-03-10T08:36:41.423Z,5.35
2023-03-10T08:39:09.015Z,5.57
2023-03-10T08:41:46.712Z,10.23
2023-03-10T08:44:15.572Z,10.40
2023-03-10T08:46:47.685Z,8.88
2023-03-10T08:49:16.305Z,13.75
2023-03-10T08:51:43.278Z,11.38
2023-03-10T08:54:16.903Z,12.10
2023-03-10T08:56:43.703Z,11.02
2023-03-10T08:59:10.538Z,12.07
2023-03-10T09:01:38.383Z,11.75
2023-03-10T09:04:06.730Z,12.80
2023-03-10T09:06:34.277Z,12.45
2023-03-10T09:09:01.556Z,9.15
2023-03-10T09:11:34.253Z,9.10
2023-03-10T09:14:02.246Z,9.82
2023-03-10T09:16:30.252Z,9.00
2023-03-10T09:18:58.403Z,10.68
2023-03-10T09:21:25.806Z,11.15
2023-03-10T09:23:53.201Z,12.25
2023-03-10T09:26:21.699Z,12.23
2023-03-10T09:28:50.991Z,11.38
2023-03-10T09:31:24.458Z,9.15
2023-03-10T09:33:51.785Z,10.52
2023-03-10T09:36:20.825Z,8.88
2023-03-10T09:38:47.845Z,10.07
2023-03-10T09:41:36.988Z,10.90
2023-03-10T09:44:17.218Z,10.65
2023-03-10T09:47:11.052Z,13.15
2023-03-10T09:49:46.337Z,9.85
2023-03-10T09:52:17.048Z,11.65
2023-03-10T09:55:06.185Z,10.63
2023-03-10T09:57:33.657Z,13.02
2023-03-10T10:00:08.307Z,12.20
2023-03-10T10:02:41.644Z,10.35
2023-03-10T10:05:19.745Z,12.80
2023-03-10T10:07:52.915Z,13.65
2023-03-10T10:10:28.656Z,15.15
2023-03-10T10:13:01.931Z,16.92
2023-03-10T10:15:34.926Z,18.63
2023-03-10T10:18:20.864Z,16.77
2023-03-10T10:21:16.406Z,16.77
2023-03-10T10:23:51.130Z,17.98
2023-03-10T10:26:23.998Z,16.75
2023-03-10T10:28:57.336Z,16.40
2023-03-10T10:31:27.918Z,17.27
2023-03-10T10:34:19.811Z,19.30
2023-03-10T10:36:55.468Z,16.33
2023-03-10T10:39:37.751Z,17.77
2023-03-10T10:42:14.774Z,30.20
2023-03-10T10:44:43.502Z,16.15
2023-03-10T10:47:36.763Z,17.30
2023-03-10T10:50:18.947Z,19.00
2023-03-10T10:52:49.330Z,18.52
2023-03-10T10:55:35.658Z,12.15
2023-03-10T10:58:06.752Z,18.02
2023-03-10T11:00:37.439Z,14.05
2023-03-10T11:03:33.340Z,11.00
2023-03-10T11:06:02.943Z,10.40
2023-03-10T11:08:37.563Z,8.77
2023-03-10T11:11:22.410Z,8.63
2023-03-10T11:14:12.751Z,9.18
2023-03-10T11:16:49.664Z,8.52
2023-03-10T11:19:35.309Z,9.85
2023-03-10T11:22:15.835Z,12.00
2023-03-10T11:24:47.084Z,7.55
2023-03-10T11:27:39.657Z,8.23
2023-03-10T11:30:18.112Z,9.20
2023-03-10T11:33:06.512Z,9.73
2023-03-10T11:35:43.924Z,9.75
2023-03-10T11:38:32.119Z,8.05
2023-03-10T11:41:13.329Z,9.23
2023-03-10T11:43:47.696Z,12.98
2023-03-10T11:46:56.708Z,9.95
2023-03-10T11:49:27.454Z,8.90
2023-03-10T11:52:00.193Z,8.93
2023-03-10T11:54:41.383Z,9.20
2023-03-10T11:57:18.976Z,9.48
2023-03-10T12:00:00.200Z,7.97
2023-03-10T12:02:36.719Z,8.30
2023-03-10T12:05:17.397Z,8.10
2023-03-10T12:07:51.478Z,7.40
2023-03-10T12:10:21.860Z,7.97
2023-03-10T12:12:50.560Z,15.40
2023-03-10T12:15:22.493Z,10.55
2023-03-10T12:17:50.501Z,10.82
2023-03-10T12:20:17.432Z,15.13
2023-03-10T12:22:52.832Z,9.65
2023-03-10T12:25:28.742Z,12.98
2023-03-10T12:30:53.406Z,10.20
2023-03-10T12:33:32.678Z,10.45
2023-03-10T12:36:05.717Z,7.68
2023-03-10T12:38:43.272Z,9.52
2023-03-10T12:41:10.757Z,9.75
2023-03-10T12:43:44.207Z,6.45
2023-03-10T12:46:18.227Z,11.07
2023-03-10T12:49:07.932Z,8.85
2023-03-10T12:51:43.375Z,7.78
2023-03-10T12:54:34.075Z,6.03
2023-03-10T12:57:32.791Z,6.93
2023-03-10T13:00:06.568Z,8.50
2023-03-10T13:02:37.494Z,6.88
2023-03-10T13:05:17.146Z,7.93
2023-03-10T13:07:49.797Z,6.75
2023-03-10T13:10:20.703Z,5.75
2023-03-10T13:12:54.851Z,8.00
2023-03-10T13:15:27.293Z,7.32
2023-03-10T13:17:57.117Z,6.22
2023-03-10T13:20:24.258Z,7.75
2023-03-10T13:22:56.115Z,8.52
2023-03-10T13:25:23.385Z,9.25
2023-03-10T13:27:50.484Z,7.72
2023-03-10T13:30:20.087Z,8.35
2023-03-10T13:32:58.663Z,6.53
2023-03-10T13:35:31.076Z,5.47
2023-03-10T13:38:27.959Z,6.43
2023-03-10T13:40:57.756Z,7.72
2023-03-10T13:43:37.142Z,5.88
2023-03-10T13:46:09.806Z,5.97
2023-03-10T13:48:37.534Z,5.97
2023-03-10T13:51:31.769Z,7.20
2023-03-10T13:54:20.530Z,8.73
2023-03-10T13:56:50.062Z,6.75
2023-03-10T13:59:24.552Z,7.00
2023-03-10T14:01:56.470Z,6.07
2023-03-10T14:04:50.429Z,7.18
2023-03-10T14:07:22.722Z,7.50
2023-03-10T14:10:10.474Z,9.63
2023-03-10T14:12:46.150Z,8.65
2023-03-10T14:15:25.336Z,11.43
2023-03-10T14:18:07.489Z,9.02
2023-03-10T14:20:45.183Z,13.27
2023-03-10T14:23:23.768Z,15.02
2023-03-10T14:25:53.366Z,7.90
2023-03-10T14:28:24.926Z,11.32
2023-03-10T14:30:52.114Z,13.27
2023-03-10T14:33:19.589Z,10.40
2023-03-10T14:35:46.842Z,12.10
2023-03-10T14:38:13.626Z,13.15
2023-03-10T14:40:44.412Z,8.63
2023-03-10T14:43:20.655Z,10.25
2023-03-10T14:45:49.636Z,9.60
2023-03-10T14:48:20.061Z,12.02
2023-03-10T14:50:48.038Z,13.25
2023-03-10T14:53:17.676Z,10.23
2023-03-10T14:55:50.138Z,12.55
2023-03-10T14:58:31.804Z,15.50
2023-03-10T15:00:59.708Z,17.45
2023-03-10T15:03:27.338Z,13.98
2023-03-10T15:05:54.119Z,13.30
2023-03-10T15:08:21.148Z,11.82
2023-03-10T15:10:50.985Z,11.85
2023-03-10T15:13:21.516Z,12.35
2023-03-10T15:15:48.866Z,10.35
2023-03-10T15:18:21.386Z,10.32
2023-03-10T15:20:49.049Z,12.63
2023-03-10T15:23:19.371Z,13.20
2023-03-10T15:25:46.886Z,12.95
2023-03-10T15:28:14.007Z,15.35
2023-03-10T15:30:41.442Z,13.32
2023-03-10T15:33:08.312Z,11.18
2023-03-10T15:35:35.291Z,12.13
2023-03-10T15:38:02.777Z,14.02
2023-03-10T15:40:31.873Z,15.23
2023-03-10T15:42:59.903Z,15.02
2023-03-10T15:45:28.596Z,15.68
2023-03-10T15:47:56.369Z,16.42
2023-03-10T15:50:23.384Z,13.30
2023-03-10T15:52:58.022Z,21.10
2023-03-10T15:55:26.147Z,15.45
2023-03-10T15:57:53.369Z,14.43
2023-03-10T16:00:22.092Z,17.00
2023-03-10T16:02:49.958Z,17.55
2023-03-10T16:05:17.350Z,15.57
2023-03-10T16:07:44.349Z,19.02
2023-03-10T16:10:16.700Z,16.45
2023-03-10T16:12:43.590Z,18.27
2023-03-10T16:15:11.068Z,17.60
2023-03-10T16:17:37.857Z,19.95
2023-03-10T16:20:11.916Z,17.02
2023-03-10T16:22:43.112Z,19.00
2023-03-10T16:25:15.711Z,18.42
2023-03-10T16:27:46.821Z,28.67
2023-03-10T16:30:16.064Z,18.50
2023-03-10T16:32:47.692Z,20.77
2023-03-10T16:35:16.162Z,16.20
2023-03-10T16:37:43.141Z,17.85
2023-03-10T16:40:10.718Z,13.73
2023-03-10T16:42:37.882Z,13.05
2023-03-10T16:45:06.015Z,15.57
2023-03-10T16:47:33.423Z,14.63
2023-03-10T16:50:00.299Z,16.77
2023-03-10T16:52:27.142Z,14.48
2023-03-10T16:54:58.156Z,17.75
2023-03-10T16:57:24.954Z,17.35
2023-03-10T16:59:51.649Z,20.45
2023-03-10T17:02:18.471Z,20.75
2023-03-10T17:04:45.947Z,18.05
2023-03-10T17:07:12.872Z,21.40
2023-03-10T17:09:39.695Z,21.98
2023-03-10T17:12:07.114Z,18.08
2023-03-10T17:14:33.884Z,17.85
2023-03-10T17:17:05.741Z,19.27
2023-03-10T17:19:33.390Z,16.05
2023-03-10T17:22:00.232Z,17.98
2023-03-10T17:24:27.609Z,19.85
2023-03-10T17:26:54.415Z,17.50
2023-03-10T17:29:21.275Z,14.73
2023-03-10T17:31:51.744Z,16.85
2023-03-10T17:34:19.779Z,16.73
2023-03-10T17:36:49.158Z,20.48
2023-03-10T17:39:19.170Z,19.52
2023-03-10T17:41:46.691Z,18.95
2023-03-10T17:44:13.602Z,19.80
2023-03-10T17:46:43.175Z,17.42
2023-03-10T17:49:12.444Z,18.58
2023-03-10T17:51:43.576Z,16.38
2023-03-10T17:54:16.832Z,18.60
2023-03-10T17:56:43.716Z,16.48
2023-03-10T17:59:12.866Z,16.17
2023-03-10T18:01:40.637Z,19.15
2023-03-10T18:04:07.460Z,19.45
2023-03-10T18:06:36.047Z,17.85
2023-03-10T18:09:07.072Z,21.13
2023-03-10T18:11:37.788Z,19.00
2023-03-10T18:14:04.705Z,16.00
2023-03-10T18:16:35.391Z,17.63
2023-03-10T18:19:02.232Z,17.70
2023-03-10T18:21:29.228Z,21.88
2023-03-10T18:23:56.148Z,19.88
2023-03-10T18:26:25.996Z,19.80
2023-03-10T18:28:53.141Z,18.13
2023-03-10T18:31:23.050Z,20.30
2023-03-10T18:33:50.150Z,21.45
2023-03-10T18:36:18.148Z,18.67
2023-03-10T18:38:46.640Z,20.90
2023-03-10T18:41:14.113Z,19.08
2023-03-10T18:43:40.909Z,21.65
2023-03-10T18:46:08.348Z,19.58
2023-03-10T18:48:35.274Z,20.67
2023-03-10T18:51:02.171Z,20.52
2023-03-10T18:53:29.433Z,20.60
2023-03-10T18:55:57.944Z,23.70
2023-03-10T18:58:25.245Z,25.55
2023-03-10T19:00:52.163Z,21.83
2023-03-10T19:03:19.718Z,23.15
2023-03-10T19:05:46.610Z,23.05
2023-03-10T19:08:16.875Z,22.50
2023-03-10T19:10:56.078Z,27.60
2023-03-10T19:13:23.756Z,30.05
2023-03-10T19:15:50.594Z,23.05
2023-03-10T19:18:17.596Z,23.92
2023-03-10T19:20:46.180Z,24.15
2023-03-10T19:23:14.616Z,25.88
2023-03-10T19:25:41.501Z,22.48
2023-03-10T19:28:08.421Z,24.48
2023-03-10T19:30:35.299Z,21.35
2023-03-10T19:33:02.123Z,23.02
2023-03-10T19:35:28.978Z,23.23
2023-03-10T19:37:55.892Z,21.88
2023-03-10T19:40:23.173Z,24.42
2023-03-10T19:42:50.142Z,23.50
2023-03-10T19:45:18.314Z,20.42
2023-03-10T19:47:46.503Z,20.48
2023-03-10T19:50:17.609Z,19.98
2023-03-10T19:52:49.650Z,24.88
2023-03-10T19:55:23.387Z,19.55
2023-03-10T19:57:52.263Z,21.05
2023-03-10T20:00:24.974Z,22.00
2023-03-10T20:02:55.109Z,24.08
2023-03-10T20:05:22.936Z,23.20
2023-03-10T20:07:49.847Z,23.25
2023-03-10T20:10:18.704Z,22.55
2023-03-10T20:12:51.296Z,23.25
2023-03-10T20:15:18.249Z,24.38
2023-03-10T20:17:45.479Z,24.60
2023-03-10T20:20:15.039Z,30.52
2023-03-10T20:22:45.312Z,25.90
2023-03-10T20:25:14.143Z,27.23
2023-03-10T20:27:41.090Z,26.52
2023-03-10T20:30:16.517Z,27.40
2023-03-10T20:32:43.617Z,26.42
2023-03-10T20:35:11.685Z,28.10
2023-03-10T20:37:38.766Z,26.70
2023-03-10T20:40:06.826Z,25.13
2023-03-10T20:42:34.376Z,27.65
2023-03-10T20:45:02.473Z,27.52
2023-03-10T20:47:29.404Z,26.63
2023-03-10T20:49:56.615Z,25.73
2023-03-10T20:52:23.475Z,24.52
2023-03-10T20:54:53.881Z,25.60
2023-03-10T20:57:21.297Z,28.05
2023-03-10T20:59:48.259Z,25.90
2023-03-10T21:02:17.909Z,27.50
2023-03-10T21:04:44.879Z,26.90
2023-03-10T21:07:11.754Z,24.88
2023-03-10T21:09:38.589Z,26.52
2023-03-10T21:12:05.436Z,25.52
2023-03-10T21:14:32.319Z,24.63
2023-03-10T21:16:59.975Z,27.35
2023-03-10T21:19:27.523Z,22.83
2023-03-10T21:21:54.430Z,27.00
2023-03-10T21:24:21.981Z,24.77
2023-03-10T21:26:48.677Z,30.33
2023-03-10T21:29:15.517Z,25.80
2023-03-10T21:31:42.357Z,26.77
2023-03-10T21:34:09.180Z,26.38
2023-03-10T21:36:36.022Z,26.40
2023-03-10T21:39:03.295Z,29.85
2023-03-10T21:41:30.579Z,33.95
2023-03-10T21:43:59.636Z,29.20
2023-03-10T21:46:26.959Z,26.88
2023-03-10T21:48:54.264Z,26.20
2023-03-10T21:51:23.622Z,26.83
2023-03-10T21:53:51.804Z,27.45
2023-03-10T21:56:19.800Z,28.92
2023-03-10T21:58:46.934Z,31.08
2023-03-10T22:01:16.380Z,32.72
2023-03-10T22:03:43.686Z,27.90
2023-03-10T22:06:10.726Z,25.70
2023-03-10T22:08:38.180Z,28.17
2023-03-10T22:11:06.939Z,26.38
2023-03-10T22:13:37.700Z,26.35
2023-03-10T22:16:06.166Z,27.25
2023-03-10T22:18:33.625Z,30.23
2023-03-10T22:21:00.561Z,26.90
2023-03-10T22:23:27.308Z,28.92
2023-03-10T22:25:54.063Z,25.50
2023-03-10T22:28:20.913Z,26.42
2023-03-10T22:30:47.664Z,29.42
2023-03-10T22:33:14.451Z,28.05
2023-03-10T22:35:41.251Z,25.10
2023-03-10T22:38:08.105Z,31.77
2023-03-10T22:40:35.899Z,28.58
2023-03-10T22:43:02.797Z,23.88
2023-03-10T22:45:32.599Z,27.70
2023-03-10T22:48:02.580Z,27.77
2023-03-10T22:50:33.408Z,27.10
2023-03-10T22:53:01.410Z,24.98
2023-03-10T22:55:34.841Z,28.40
2023-03-10T22:58:07.109Z,27.38
2023-03-10T23:00:34.553Z,27.05
2023-03-10T23:03:01.409Z,24.70
2023-03-10T23:05:28.671Z,25.25
2023-03-10T23:07:59.228Z,24.90
2023-03-10T23:10:28.434Z,24.42
2023-03-10T23:12:56.118Z,28.05
2023-03-10T23:15:26.186Z,36.08
2023-03-10T23:17:55.305Z,25.30
2023-03-10T23:20:27.100Z,27.08
2023-03-10T23:22:55.735Z,28.52
2023-03-10T23:25:31.967Z,26.30
2023-03-10T23:28:00.825Z,26.65
2023-03-10T23:30:28.607Z,27.88
2023-03-10T23:32:56.545Z,29.08
2023-03-10T23:35:33.798Z,23.58
2023-03-10T23:38:02.119Z,25.65
2023-03-10T23:40:30.754Z,24.77
2023-03-10T23:42:59.092Z,30.75
2023-03-10T23:45:28.194Z,25.95
2023-03-10T23:47:55.882Z,29.45
2023-03-10T23:50:26.329Z,29.75
2023-03-10T23:52:53.605Z,29.95
2023-03-10T23:55:23.258Z,26.27
2023-03-10T23:57:50.347Z,27.67
